Latest Coastal Weather Observations for Geraldton Airport

IDW60701

Issued at 12:05 pm WST Monday 15 September 2014 (issued every 10 minutes, with the page automatically refreshed every 10 minutes)

About coastal observations | Map of coastal stations | Coastal observations for WA | Marine services | Other Formats
Station Details ID: 008315 Name: GERALDTON AIRPORT Lat: -28.80 Lon: 114.70 Height: 29.7 m
Data from the previous 72 hours. | See also: Recent months at Geraldton Airport
Date/Time
WST
Temp

°C
Wind Pressure Rain
since 9am
mm
Weather Cloud Vis
km
Sea
Height
m
Swell
Dir
 
Speed
knots
Gust
knots
hPa Trend Height
m
Period
s
Dir
15/12:00pm 27.7 E 10 16 1018.6 F 0.0 Fine Clear 40 - - - -
15/11:30am 27.0 E 12 16 1019.0 - 0.0 - - 10 - - - -
15/11:00am 26.2 E 13 17 1019.4 - 0.0 - - 10 - - - -
15/10:30am 25.2 ENE 16 20 1019.7 - 0.0 - - 10 - - - -
15/10:00am 23.9 E 14 19 1020.1 - 0.0 - - 10 - - - -
15/09:30am 21.8 ESE 13 18 1020.5 - 0.0 - - 10 - - - -
15/09:00am 19.6 ESE 12 18 1020.9 F 0.0 Fine Clear 40 - - - -
15/08:30am 16.9 ESE 10 13 1021.4 - 0.0 - - 10 - - - -
15/08:00am 13.7 SSE 7 9 1021.6 - 0.0 - - 10 - - - -
15/07:30am 10.6 SSE 5 7 1021.7 - 0.0 - - 10 - - - -
15/07:00am 9.2 SE 7 9 1021.6 - 0.0 - - 10 - - - -
15/06:30am 8.1 SE 8 9 1021.3 - 0.0 - - 10 - - - -
15/06:00am 7.8 SE 8 8 1021.1 F 0.0 Fine Clear 30 - - - -
15/05:30am 7.9 SSE 6 7 1020.8 - 0.0 - - 10 - - - -
15/05:00am 8.5 SE 5 7 1020.6 - 0.0 - - 10 - - - -
15/04:30am 8.7 SE 6 7 1020.5 - 0.0 - - 10 - - - -
15/04:00am 9.0 SSE 8 10 1020.4 - 0.0 - - 10 - - - -
15/03:30am 9.3 SSE 6 9 1020.7 - 0.0 - - 10 - - - -
15/03:00am 9.6 SE 8 10 1020.9 - 0.0 - - 10 - - - -
15/02:30am 9.9 SE 9 11 1020.9 - 0.0 - - 10 - - - -
15/02:00am 10.2 SE 9 11 1021.2 - 0.0 - - 10 - - - -
15/01:30am 10.5 SE 9 11 1021.1 - 0.0 - - 10 - - - -
15/01:00am 10.9 SE 11 13 1021.1 - 0.0 - - 10 - - - -
15/12:30am 11.4 SE 8 10 1021.4 - 0.0 - - 10 - - - -
15/12:00am 12.0 SE 9 11 1021.5 - 0.0 - - 10 - - - -
 
Date/Time
WST
Temp

°C
Wind Pressure Rain
since 9am
mm
Weather Cloud Vis
km
Sea
Height
m
Swell
Dir
 
Speed
knots
Gust
knots
hPa Trend Height
m
Period
s
Dir
14/11:30pm 12.7 SSE 11 13 1021.3 - 0.0 - - 10 - - - -
14/11:00pm 13.5 SSE 11 15 1021.4 - 0.0 - - 10 - - - -
14/10:30pm 13.4 SSE 11 13 1021.4 - 0.0 - - 10 - - - -
14/10:00pm 13.8 SE 6 9 1021.7 - 0.0 - - 10 - - - -
14/09:30pm 14.2 SSE 7 9 1021.7 - 0.0 - - 10 - - - -
14/09:00pm 14.6 SSE 6 8 1021.8 - 0.0 - - 10 - - - -
14/08:30pm 15.4 SSE 6 8 1021.6 - 0.0 - - 10 - - - -
14/08:00pm 16.3 SSE 9 11 1021.3 - 0.0 - - 10 - - - -
14/07:30pm 16.9 SSE 10 13 1021.0 - 0.0 - - 10 - - - -
14/07:00pm 17.1 SSE 9 12 1020.8 - 0.0 - - 10 - - - -
14/06:30pm 17.8 S 10 13 1020.7 - 0.0 - - 10 - - - -
14/06:00pm 18.7 S 12 17 1020.6 - 0.0 - - 10 - - - -
14/05:30pm 19.6 S 14 21 1020.3 - 0.0 - - 10 - - - -
14/05:00pm 20.3 S 15 20 1020.2 - 0.0 - - 10 - - - -
14/04:30pm 20.6 S 15 20 1020.0 - 0.0 - - 10 - - - -
14/04:00pm 21.2 S 15 20 1019.8 - 0.0 - - 10 - - - -
14/03:30pm 22.0 S 15 20 1019.6 - 0.0 - - 10 - - - -
14/03:00pm 22.6 S 13 18 1019.8 R 0.0 Fine Clear 40 - - - -
14/02:30pm 23.0 SSW 15 19 1019.6 - 0.0 - - 10 - - - -
14/02:00pm 23.0 SSW 15 18 1019.6 - 0.0 - - 10 - - - -
14/01:30pm 25.1 SE 10 14 1019.8 - 0.0 - - 10 - - - -
14/01:00pm 24.2 ESE 9 11 1020.2 - 0.0 - - 10 - - - -
14/12:30pm 23.4 SE 10 14 1020.6 - 0.0 - - 10 - - - -
14/12:00pm 23.2 SSE 10 14 1021.1 F 0.0 Fine Clear 40 - - - -
14/11:30am 23.3 ESE 8 12 1021.4 - 0.0 - - 10 - - - -
14/11:00am 22.5 SE 12 15 1021.6 - 0.0 - - 10 - - - -
14/10:30am 21.6 E 9 13 1021.8 - 0.0 - - 10 - - - -
14/10:00am 19.9 ESE 5 10 1022.1 - 0.0 - - 10 - - - -
14/09:30am 18.3 SE 7 9 1022.3 - 0.0 - - 10 - - - -
14/09:00am 16.8 SSE 7 8 1022.5 S 0.0 Fine Mostly clear 40 - - - -
14/08:30am 15.6 SE 7 10 1022.4 - 0.0 - Mostly clear 10 - - - -
14/08:00am 14.1 SE 5 7 1022.3 - 0.0 - Mostly clear 10 - - - -
14/07:30am 11.8 SSE 5 5 1022.0 - 0.0 - Mostly clear 10 - - - -
14/07:00am 9.6 SE 5 6 1021.7 - 0.0 - Mostly clear 10 - - - -
14/06:30am 8.2 SE 5 5 1021.4 - 0.0 - Mostly clear 10 - - - -
14/06:00am 8.3 SE 6 7 1021.4 R 0.0 Fine Clear 30 - - - -
14/05:30am 9.1 SSE 7 8 1021.0 - 0.0 - - 10 - - - -
14/05:00am 10.1 SE 8 9 1020.7 - 0.0 - - 10 - - - -
14/04:30am 9.6 SE 8 9 1020.7 - 0.0 - - 10 - - - -
14/04:00am 10.0 SSE 8 9 1020.8 - 0.0 - - 10 - - - -
14/03:30am 10.0 SSE 8 9 1020.6 - 0.0 - - 10 - - - -
14/03:00am 10.1 SSE 8 9 1020.7 - 0.0 - - 10 - - - -
14/02:30am 10.8 SE 7 9 1020.6 - 0.0 - - 10 - - - -
14/02:00am 11.2 SSE 9 11 1020.6 - 0.0 - - 10 - - - -
14/01:30am 9.8 SSE 5 6 1020.8 - 0.0 - - 10 - - - -
14/01:00am 9.4 CALM 0 3 1020.9 - 0.0 - - 10 - - - -
14/12:30am 10.5 SE 6 7 1020.9 - 0.0 - - 10 - - - -
14/12:00am 11.1 SSE 8 8 1021.2 - 0.0 - - 10 - - - -
 
Date/Time
WST
Temp

°C
Wind Pressure Rain
since 9am
mm
Weather Cloud Vis
km
Sea
Height
m
Swell
Dir
 
Speed
knots
Gust
knots
hPa Trend Height
m
Period
s
Dir
13/11:30pm 11.2 SSE 8 8 1020.8 - 0.0 - - 10 - - - -
13/11:00pm 11.2 SE 6 7 1021.2 - 0.0 - - 10 - - - -
13/10:30pm 11.3 SE 4 5 1021.4 - 0.0 - - 10 - - - -
13/10:00pm 10.9 E 4 5 1021.7 - 0.0 - - 10 - - - -
13/09:30pm 11.0 E 4 6 1021.7 - 0.0 - - 10 - - - -
13/09:00pm 11.8 CALM 0 0 1021.7 F 0.0 Fine Clear 40 - - - -
13/08:30pm 12.8 SE 3 4 1021.6 - 0.0 - - 10 - - - -
13/08:00pm 13.6 SSE 5 6 1021.4 - 0.0 - - 10 - - - -
13/07:30pm 14.6 S 6 6 1021.1 - 0.0 - Mostly clear 10 - - - -
13/07:00pm 15.1 SE 4 5 1020.9 - 0.0 - Mostly clear 10 - - - -
13/06:30pm 16.3 SSW 7 8 1020.7 - 0.0 - Mostly clear 10 - - - -
13/06:00pm 18.1 SSW 9 11 1020.7 R 0.0 Fine Mostly clear 40 - - - -
13/05:30pm 19.3 SSW 12 15 1020.4 - 0.0 - Mostly clear 10 - - - -
13/05:00pm 20.1 SSW 13 15 1020.2 - 0.0 - Mostly clear 10 - - - -
13/04:30pm 20.6 SSW 13 16 1020.0 - 0.0 - Mostly clear 10 - - - -
13/04:00pm 21.2 SSW 13 16 1019.9 - 0.0 - Mostly clear 10 - - - -
13/03:30pm 21.6 SSW 12 17 1019.9 - 0.0 - Mostly clear 10 - - - -
13/03:00pm 22.2 SSW 12 15 1019.8 R 0.0 Fine Mostly clear 40 - - - -
13/02:30pm 22.2 SSW 11 15 1019.8 - 0.0 - Mostly clear 10 - - - -
13/02:00pm 22.0 SSW 12 18 1020.0 - 0.0 - Mostly clear 10 - - - -
13/01:30pm 22.6 SSW 11 15 1020.0 - 0.0 - Mostly clear 10 - - - -
13/01:00pm 22.6 SSW 10 13 1020.1 - 0.0 - Mostly clear 10 - - - -
13/12:30pm 22.5 S 10 15 1020.4 - 0.0 - Mostly clear 10 - - - -
13/12:00pm 22.2 S 11 18 1020.8 F 0.0 Fine Partly cloudy 40 - - - -
13/11:30am 21.3 S 9 13 1020.9 - 0.0 - Partly cloudy 10 - - - -
13/11:00am 21.9 SSE 7 14 1021.2 - 0.0 - Partly cloudy 10 - - - -
13/10:30am 21.3 SE 9 11 1021.5 - 0.0 - Partly cloudy 10 - - - -
13/10:00am 21.1 SSE 7 12 1021.7 - 0.0 - Mostly clear 10 - - - -
13/09:30am 19.8 ESE 8 13 1021.9 - 0.0 - Mostly clear 10 - - - -
13/09:00am 19.2 E 7 10 1022.1 R 0.0 Fine Mostly clear 40 - - - -
13/08:30am 17.5 E 8 12 1021.9 - 0.0 - Mostly clear 10 - - - -
13/08:00am 15.8 E 8 11 1021.6 - 0.0 - Mostly clear 10 - - - -
13/07:30am 13.9 E 2 5 1021.3 - 0.0 - Mostly clear 10 - - - -
13/07:00am 11.7 ESE 3 4 1021.2 - 0.0 - Mostly clear 10 - - - -
13/06:30am 11.0 E 7 8 1020.7 - 0.0 - Mostly clear 10 - - - -
13/06:00am 11.1 ESE 6 7 1020.6 F 0.0 Fine Mostly clear 30 - - - -
13/05:30am 11.2 ESE 6 7 1020.4 - 0.0 - - 10 - - - -
13/05:00am 11.3 SE 4 4 1020.1 - 0.0 - Partly cloudy 10 - - - -
13/04:30am 11.7 ENE 4 4 1019.9 - 0.0 - - 10 - - - -
13/04:00am 11.6 NE 6 7 1020.0 - 0.0 - - 10 - - - -
13/03:30am 12.0 ENE 8 8 1020.1 - 0.0 - - 10 - - - -
13/03:00am 12.4 NE 6 7 1020.1 - 0.0 - Cloudy 10 - - - -
13/02:30am 12.9 NNE 6 7 1019.9 - 0.0 - Partly cloudy 10 - - - -
13/02:05am 12.7 NE 5 7 1019.8 - 0.0 - Partly cloudy 10 - - - -
13/02:00am 12.7 ENE 4 6 1019.9 - 0.0 - Partly cloudy 10 - - - -
13/01:30am 13.5 CALM 0 0 1019.8 - 0.0 - Partly cloudy 7 - - - -
13/01:28am 13.6 CALM 0 0 1019.8 - 0.0 - Partly cloudy 8 - - - -
13/01:00am 13.5 SE 4 5 1019.7 - 0.0 - Partly cloudy 10 - - - -
13/12:30am 14.2 SSE 5 7 1019.8 - 0.0 - Partly cloudy 10 - - - -
13/12:00am 14.4 SE 5 7 1020.0 - 0.0 - Cloudy 10 - - - -
 
Date/Time
WST
Temp

°C
Wind Pressure Rain
since 9am
mm
Weather Cloud Vis
km
Sea
Height
m
Swell
Dir
 
Speed
knots
Gust
knots
hPa Trend Height
m
Period
s
Dir
12/11:30pm 14.7 SE 5 7 1020.0 - 0.0 - Partly cloudy 10 - - - -
12/11:00pm 15.0 SE 7 9 1020.2 - 0.0 - Partly cloudy 10 - - - -
12/10:30pm 16.8 S 9 12 1020.2 - 0.0 - Partly cloudy 10 - - - -
12/10:00pm 16.9 S 11 14 1020.2 - 0.0 - - 10 - - - -
12/09:30pm 16.2 S 8 13 1020.4 - 0.0 - Partly cloudy 10 - - - -
12/09:00pm 15.9 S 6 8 1020.8 F 0.0 Fine Mostly clear 30 - - - -
12/08:30pm 16.9 S 11 14 1020.4 - 0.0 - Mostly clear 10 - - - -
12/08:00pm 17.1 S 9 13 1020.6 - 0.0 - Partly cloudy 10 - - - -
12/07:30pm 17.4 S 12 16 1020.0 - 0.0 - Partly cloudy 10 - - - -
12/07:00pm 17.6 S 13 17 1019.9 - 0.0 - Partly cloudy 10 - - - -
12/06:30pm 18.2 S 13 18 1019.7 - 0.0 - Mostly cloudy 10 - - - -
12/06:00pm 18.6 S 13 18 1019.5 R 0.0 Fine Mostly cloudy 30 - - - -
12/05:30pm 19.2 S 16 21 1018.9 - 0.0 - Partly cloudy 10 - - - -
12/05:00pm 19.8 S 19 24 1018.8 - 0.0 - Partly cloudy 10 - - - -
12/04:30pm 20.4 SSW 16 22 1018.4 - 0.0 - Mostly clear 10 - - - -
12/04:00pm 21.1 SSW 17 21 1018.2 - 0.0 - Mostly clear 10 - - - -
12/03:30pm 21.4 SSW 17 22 1018.0 - 0.0 - - 10 - - - -
12/03:00pm 22.3 SW 15 20 1017.7 R 0.0 Fine Clear 40 - - - -
12/02:30pm 22.1 SW 18 22 1017.4 - 0.0 - - 10 - - - -
12/02:00pm 23.3 SW 15 19 1017.1 - 0.0 - - 10 - - - -
12/01:30pm 25.5 SW 14 19 1017.0 - 0.0 - - 10 - - - -
12/01:00pm 26.4 S 8 11 1017.0 - 0.0 - - 10 - - - -
12/12:30pm 27.2 S 5 9 1017.3 - 0.0 - - 10 - - - -

Other Formats:

Comma delimited format used in spreadsheet applications
http://www.bom.gov.au/fwo/IDW60701/IDW60701.94403.axf

JavaScript Object Notation format (JSON) in row-major order
http://www.bom.gov.au/fwo/IDW60701/IDW60701.94403.json